Time;durP1;ratioP1;P1;durP2;ratioP2;P2;SDS_P1;SDS_P2;PMS_P1;PMS_P2;Temp;Humidity;BMP_temperature;BMP_pressure;BME280_temperature;BME280_humidity;BME280_pressure;Samples;Min_cycle;Max_cycle;Signal;HPM_P1;HPM_P2
2023/04/27 00:01:14;;;;;;;0.05;0.05;;;;;;;14.69;47.77;100927.69;7357877;19;20014;-61
2023/04/27 00:03:41;;;;;;;0.00;0.00;;;;;;;14.78;47.63;100954.50;7358712;19;20438;-61
2023/04/27 00:06:09;;;;;;;0.00;0.00;;;;;;;14.73;47.94;100943.28;7355992;19;20723;-60
2023/04/27 00:08:35;;;;;;;0.10;0.10;;;;;;;14.69;48.26;100946.94;7357687;19;20018;-60
2023/04/27 00:11:00;;;;;;;0.00;0.00;;;;;;;14.64;48.42;100946.25;7355774;19;20498;-61
2023/04/27 00:13:26;;;;;;;0.00;0.00;;;;;;;14.59;48.29;100945.56;7361464;19;20027;-61
2023/04/27 00:15:52;;;;;;;0.08;0.08;;;;;;;14.60;48.84;100951.66;7360424;19;20015;-61
2023/04/27 00:18:17;;;;;;;0.00;0.00;;;;;;;14.56;48.87;100937.78;7359271;19;20263;-61
2023/04/27 00:20:43;;;;;;;0.00;0.00;;;;;;;14.55;48.61;100943.97;7354915;19;20011;-60
2023/04/27 00:23:09;;;;;;;0.00;0.00;;;;;;;14.53;48.89;100945.78;7358970;19;20070;-61
2023/04/27 00:25:34;;;;;;;0.10;0.10;;;;;;;14.50;48.80;100940.66;7356798;19;20046;-60
2023/04/27 00:28:00;;;;;;;0.00;0.00;;;;;;;14.50;49.21;100938.00;7357328;19;20014;-61
2023/04/27 00:30:25;;;;;;;0.00;0.00;;;;;;;14.49;49.36;100933.66;7355070;19;20679;-60
2023/04/27 00:32:50;;;;;;;0.00;0.00;;;;;;;14.49;49.37;100933.66;7355477;19;20066;-60
2023/04/27 00:35:16;;;;;;;0.00;0.00;;;;;;;14.49;48.94;100936.28;7360892;19;20008;-60
2023/04/27 00:37:41;;;;;;;0.10;0.10;;;;;;;14.45;48.98;100932.88;7357322;19;20046;-60
2023/04/27 00:40:07;;;;;;;0.00;0.00;;;;;;;14.46;49.22;100937.22;7359279;19;20341;-60
2023/04/27 00:42:34;;;;;;;0.00;0.00;;;;;;;14.46;49.56;100933.75;7353696;19;20014;-61
2023/04/27 00:44:59;;;;;;;0.10;0.10;;;;;;;14.43;49.55;100939.09;7359911;19;20047;-60
2023/04/27 00:47:25;;;;;;;0.00;0.00;;;;;;;14.41;49.17;100926.03;7356638;19;20709;-61
2023/04/27 00:49:50;;;;;;;0.08;0.08;;;;;;;14.39;49.88;100921.72;7357943;19;20010;-61
2023/04/27 00:52:16;;;;;;;0.00;0.00;;;;;;;14.38;49.37;100925.25;7356736;19;20705;-61
2023/04/27 00:54:42;;;;;;;0.00;0.00;;;;;;;14.34;49.29;100921.88;7357492;19;20014;-60
2023/04/27 00:57:07;;;;;;;0.10;0.10;;;;;;;14.31;49.55;100913.25;7356243;19;20090;-60
2023/04/27 00:59:33;;;;;;;0.00;0.00;;;;;;;14.27;49.22;100905.47;7358627;19;20739;-61
2023/04/27 01:01:59;;;;;;;0.00;0.00;;;;;;;14.27;49.26;100902.84;7358261;19;20010;-60
2023/04/27 01:04:25;;;;;;;0.00;0.00;;;;;;;14.14;49.78;100875.31;7361061;19;20031;-60
2023/04/27 01:06:51;;;;;;;0.00;0.00;;;;;;;14.24;50.03;100897.72;7356379;19;20010;-60
2023/04/27 01:09:18;;;;;;;0.00;0.00;;;;;;;14.25;50.06;100888.91;7357280;19;20011;-60
2023/04/27 01:11:46;;;;;;;0.00;0.00;;;;;;;14.23;49.95;100874.09;7357427;19;20002;-60
2023/04/27 01:14:12;;;;;;;0.00;0.00;;;;;;;14.23;50.34;100869.72;7357520;19;20462;-60
2023/04/27 01:16:38;;;;;;;0.00;0.00;;;;;;;14.25;49.76;100873.16;7357122;19;20011;-60
2023/04/27 01:19:03;;;;;;;0.00;0.00;;;;;;;14.27;50.51;100867.84;7357300;19;20106;-60
2023/04/27 01:21:29;;;;;;;0.00;0.00;;;;;;;14.28;50.65;100867.78;7355105;19;20108;-60
2023/04/27 01:23:55;;;;;;;0.00;0.00;;;;;;;14.30;50.51;100853.75;7359566;19;20098;-60
2023/04/27 01:26:21;;;;;;;0.08;0.08;;;;;;;14.30;50.09;100851.97;7354053;19;20003;-61
2023/04/27 01:28:47;;;;;;;0.00;0.00;;;;;;;14.26;50.49;100848.59;7356555;19;20920;-60
2023/04/27 01:31:12;;;;;;;0.03;0.03;;;;;;;14.28;50.44;100852.00;7354964;19;20010;-60
2023/04/27 01:33:38;;;;;;;0.00;0.00;;;;;;;14.32;50.54;100857.19;7355907;19;20807;-60
2023/04/27 01:36:05;;;;;;;0.10;0.10;;;;;;;14.32;50.32;100847.53;7359121;19;20566;-61
2023/04/27 01:38:32;;;;;;;0.00;0.00;;;;;;;14.33;50.23;100841.34;7355000;19;20913;-60
2023/04/27 01:41:01;;;;;;;0.00;0.00;;;;;;;14.32;50.45;100844.03;7357774;19;20029;-61
2023/04/27 01:43:27;;;;;;;0.00;0.00;;;;;;;14.29;50.40;100839.75;7359155;19;20078;-61
2023/04/27 01:45:53;;;;;;;0.00;0.00;;;;;;;14.27;50.00;100839.81;7358621;19;20467;-61
2023/04/27 01:48:19;;;;;;;0.00;0.00;;;;;;;14.25;50.56;100836.38;7349329;19;20023;-60
2023/04/27 01:50:44;;;;;;;0.10;0.10;;;;;;;14.24;50.49;100834.69;7356666;19;20502;-61
2023/04/27 01:53:09;;;;;;;0.00;0.00;;;;;;;14.23;50.34;100825.06;7353980;19;20030;-60
2023/04/27 01:55:35;;;;;;;0.10;0.10;;;;;;;14.21;50.81;100816.38;7358923;19;20010;-61
2023/04/27 01:58:00;;;;;;;0.00;0.00;;;;;;;14.22;50.50;100820.72;7345924;19;20021;-60
2023/04/27 02:00:26;;;;;;;0.00;0.00;;;;;;;14.22;50.73;100810.22;7351458;19;20014;-60
2023/04/27 02:02:52;;;;;;;0.00;0.00;;;;;;;14.23;50.70;100803.19;7353395;19;20890;-61
2023/04/27 02:05:19;;;;;;;0.00;0.00;;;;;;;14.23;50.88;100805.81;7354165;19;20110;-60
2023/04/27 02:07:44;;;;;;;0.08;0.08;;;;;;;14.21;50.85;100805.88;7350010;19;20555;-61
2023/04/27 02:10:10;;;;;;;0.00;0.00;;;;;;;14.21;51.22;100808.50;7353865;19;20577;-60
2023/04/27 02:12:36;;;;;;;0.00;0.00;;;;;;;14.20;51.43;100804.19;7347948;19;20030;-61
2023/04/27 02:15:02;;;;;;;0.00;0.00;;;;;;;14.22;51.59;100809.38;7352924;19;20007;-61
2023/04/27 02:17:28;;;;;;;0.00;0.00;;;;;;;14.22;51.47;100810.22;7354163;19;20014;-61
2023/04/27 02:19:54;;;;;;;0.00;0.00;;;;;;;14.23;51.37;100808.44;7349244;19;20028;-60
2023/04/27 02:22:19;;;;;;;0.10;0.10;;;;;;;14.19;51.24;100798.94;7351439;19;20015;-61
2023/04/27 02:24:45;;;;;;;0.00;0.00;;;;;;;14.23;51.05;100795.31;7353396;19;20568;-61
2023/04/27 02:27:10;;;;;;;0.00;0.00;;;;;;;14.19;51.49;100788.44;7354300;19;20022;-60
2023/04/27 02:29:37;;;;;;;0.00;0.00;;;;;;;14.22;51.34;100790.97;7345780;19;20017;-60
2023/04/27 02:32:06;;;;;;;0.00;0.00;;;;;;;14.18;51.52;100787.59;7355074;19;20648;-60
2023/04/27 02:34:32;;;;;;;0.10;0.10;;;;;;;14.18;51.54;100777.09;7353306;19;20553;-60
2023/04/27 02:36:57;;;;;;;0.00;0.00;;;;;;;14.17;51.84;100783.25;7349909;19;20018;-61
2023/04/27 02:39:23;;;;;;;0.00;0.00;;;;;;;14.15;51.54;100776.38;7350961;19;20018;-60
2023/04/27 02:41:48;;;;;;;0.00;0.00;;;;;;;14.12;51.37;100781.72;7353876;19;20018;-60
2023/04/27 02:44:14;;;;;;;0.10;0.10;;;;;;;14.09;51.77;100780.06;7352841;19;20053;-61
2023/04/27 02:46:39;;;;;;;0.00;0.00;;;;;;;14.05;51.83;100778.47;7353333;19;20047;-60
2023/04/27 02:49:04;;;;;;;0.10;0.10;;;;;;;14.05;52.05;100772.34;7360899;19;20034;-61
2023/04/27 02:51:30;;;;;;;0.00;0.00;;;;;;;14.02;51.70;100775.94;7351873;19;20094;-60
2023/04/27 02:53:55;;;;;;;0.00;0.00;;;;;;;14.01;52.22;100774.22;7360841;19;20021;-60
2023/04/27 02:56:21;;;;;;;0.00;0.00;;;;;;;13.99;52.09;100770.81;7355196;19;20018;-62
2023/04/27 02:58:46;;;;;;;0.00;0.00;;;;;;;13.90;52.00;100750.13;7358511;19;20128;-62
2023/04/27 03:01:14;;;;;;;0.00;0.00;;;;;;;13.87;52.12;100744.97;7357355;19;20018;-62
2023/04/27 03:03:40;;;;;;;0.00;0.00;;;;;;;13.92;51.95;100761.41;7343487;19;20010;-62
2023/04/27 03:06:05;;;;;;;0.00;0.00;;;;;;;13.92;51.83;100761.41;7356151;19;20022;-63
2023/04/27 03:08:31;;;;;;;0.10;0.10;;;;;;;13.88;52.42;100755.41;7359004;19;20466;-62
2023/04/27 03:10:56;;;;;;;0.00;0.00;;;;;;;13.86;52.18;100754.63;7362964;19;20017;-61
2023/04/27 03:13:22;;;;;;;0.00;0.00;;;;;;;13.82;52.44;100753.00;7356949;19;20648;-62
2023/04/27 03:15:48;;;;;;;0.00;0.00;;;;;;;13.80;52.96;100746.97;7357603;19;20010;-62
2023/04/27 03:18:13;;;;;;;0.10;0.10;;;;;;;13.77;52.93;100747.91;7356380;19;20014;-62
2023/04/27 03:20:38;;;;;;;0.00;0.00;;;;;;;13.75;53.03;100747.13;7340917;19;20554;-62
2023/04/27 03:23:04;;;;;;;0.00;0.00;;;;;;;13.73;52.97;100743.69;7356220;19;21065;-62
2023/04/27 03:25:29;;;;;;;0.00;0.00;;;;;;;13.68;53.25;100740.38;7361449;19;20011;-62
2023/04/27 03:27:55;;;;;;;0.00;0.00;;;;;;;13.69;53.49;100742.09;7359465;19;20018;-62
2023/04/27 03:30:21;;;;;;;0.00;0.00;;;;;;;13.59;53.46;100724.97;7359084;19;20006;-62
2023/04/27 03:32:46;;;;;;;0.00;0.00;;;;;;;13.69;53.12;100736.00;7362692;19;20026;-62
2023/04/27 03:35:12;;;;;;;0.10;0.10;;;;;;;13.68;53.98;100729.00;7361157;19;20018;-62
2023/04/27 03:37:37;;;;;;;0.08;0.08;;;;;;;13.69;53.62;100734.22;7360834;19;20037;-62
2023/04/27 03:40:06;;;;;;;0.10;0.10;;;;;;;13.68;53.80;100722.00;7360960;19;20010;-62
2023/04/27 03:42:31;;;;;;;0.00;0.00;;;;;;;13.67;54.02;100730.78;7361173;19;20010;-62
2023/04/27 03:44:57;;;;;;;0.00;0.00;;;;;;;13.66;54.11;100728.22;7352520;19;20030;-62
2023/04/27 03:47:22;;;;;;;0.00;0.00;;;;;;;13.65;54.46;100724.75;7356356;19;20074;-62
2023/04/27 03:49:48;;;;;;;0.00;0.00;;;;;;;13.66;54.59;100715.97;7362914;19;20747;-62
2023/04/27 03:52:13;;;;;;;0.00;0.00;;;;;;;13.66;54.59;100718.59;7358713;19;20023;-62
2023/04/27 03:54:38;;;;;;;0.00;0.00;;;;;;;13.68;54.65;100713.28;7362957;19;20014;-61
2023/04/27 03:57:04;;;;;;;0.00;0.00;;;;;;;13.66;55.05;100710.72;7361737;19;20106;-61
2023/04/27 03:59:29;;;;;;;0.00;0.00;;;;;;;13.66;55.30;100708.09;7360659;19;20006;-62
2023/04/27 04:01:56;;;;;;;0.00;0.00;;;;;;;13.66;55.12;100709.84;7355009;19;20029;-62
2023/04/27 04:04:22;;;;;;;0.00;0.00;;;;;;;13.64;55.52;100704.66;7360459;19;20006;-61
2023/04/27 04:06:47;;;;;;;0.10;0.10;;;;;;;13.63;55.07;100707.31;7361077;19;20031;-61
2023/04/27 04:09:13;;;;;;;0.00;0.00;;;;;;;13.61;55.82;100696.03;7361810;19;20021;-62
2023/04/27 04:11:38;;;;;;;0.00;0.00;;;;;;;13.62;55.22;100695.97;7361081;19;20018;-61
2023/04/27 04:14:04;;;;;;;0.00;0.00;;;;;;;13.61;55.23;100691.66;7360060;19;20017;-62
2023/04/27 04:16:29;;;;;;;0.00;0.00;;;;;;;13.58;56.18;100693.50;7360025;19;20018;-62
2023/04/27 04:18:55;;;;;;;0.00;0.00;;;;;;;13.57;56.34;100699.69;7361590;19;20564;-61
2023/04/27 04:21:20;;;;;;;0.00;0.00;;;;;;;13.55;56.44;100691.88;7360223;19;20056;-61
2023/04/27 04:23:46;;;;;;;0.00;0.00;;;;;;;13.54;56.83;100692.78;7360568;19;20014;-61
2023/04/27 04:26:12;;;;;;;0.05;0.05;;;;;;;13.53;56.92;100692.81;7351315;19;20052;-61
2023/04/27 04:28:37;;;;;;;0.00;0.00;;;;;;;13.52;57.19;100696.34;7361798;19;20676;-61
2023/04/27 04:31:04;;;;;;;0.00;0.00;;;;;;;13.50;57.05;100685.94;7358256;19;20129;-62
2023/04/27 04:33:30;;;;;;;0.00;0.00;;;;;;;13.49;56.85;100676.34;7359857;19;20778;-61
2023/04/27 04:35:55;;;;;;;0.00;0.00;;;;;;;13.48;57.56;100674.59;7348061;19;20018;-61
2023/04/27 04:38:22;;;;;;;0.00;0.00;;;;;;;13.34;57.50;100655.91;7360894;19;20025;-60
2023/04/27 04:40:48;;;;;;;0.00;0.00;;;;;;;13.45;57.52;100674.75;7355478;19;20020;-61
2023/04/27 04:43:14;;;;;;;0.00;0.00;;;;;;;13.44;57.34;100673.03;7360710;19;20418;-60
2023/04/27 04:45:39;;;;;;;0.00;0.00;;;;;;;13.44;57.02;100673.03;7352678;19;21673;-61
2023/04/27 04:48:05;;;;;;;0.00;0.00;;;;;;;13.40;57.67;100671.41;7360326;19;20014;-61
2023/04/27 04:50:30;;;;;;;0.00;0.00;;;;;;;13.40;57.53;100671.41;7354304;19;20030;-61
2023/04/27 04:52:55;;;;;;;0.00;0.00;;;;;;;13.39;56.87;100674.97;7360319;19;20060;-61
2023/04/27 04:55:21;;;;;;;0.00;0.00;;;;;;;13.39;57.13;100664.47;7356114;19;20034;-61
2023/04/27 04:57:46;;;;;;;0.08;0.08;;;;;;;13.25;58.16;100643.94;7357107;19;20018;-61
2023/04/27 05:00:13;;;;;;;0.00;0.00;;;;;;;13.36;58.26;100669.81;7359747;19;20018;-60
2023/04/27 05:02:41;;;;;;;0.00;0.00;;;;;;;13.37;57.75;100668.88;7356070;19;20014;-61
2023/04/27 05:05:07;;;;;;;0.00;0.00;;;;;;;13.34;57.91;100661.16;7359263;19;20739;-61
2023/04/27 05:07:33;;;;;;;0.00;0.00;;;;;;;13.28;58.48;100650.84;7356825;19;20033;-61
2023/04/27 05:09:59;;;;;;;0.00;0.00;;;;;;;13.32;58.25;100663.81;7359385;19;21060;-61
2023/04/27 05:12:24;;;;;;;0.10;0.10;;;;;;;13.30;58.36;100665.63;7356332;19;20106;-61
2023/04/27 05:14:52;;;;;;;0.00;0.00;;;;;;;13.33;57.93;100659.41;7359467;19;20007;-62
2023/04/27 05:17:18;;;;;;;0.00;0.00;;;;;;;13.30;58.70;100659.53;7356706;19;20026;-60
2023/04/27 05:19:43;;;;;;;0.00;0.00;;;;;;;13.31;58.06;100666.47;7359026;19;20006;-61
2023/04/27 05:22:09;;;;;;;0.03;0.03;;;;;;;13.29;58.63;100663.06;7359339;19;20015;-61
2023/04/27 05:24:35;;;;;;;0.00;0.00;;;;;;;13.27;58.33;100664.88;7360076;19;20010;-61
2023/04/27 05:27:00;;;;;;;0.00;0.00;;;;;;;13.24;58.98;100661.47;7356708;19;20038;-61
2023/04/27 05:29:26;;;;;;;0.00;0.00;;;;;;;13.24;58.88;100666.69;7354308;19;20066;-61
2023/04/27 05:31:52;;;;;;;0.00;0.00;;;;;;;13.21;59.42;100661.53;7354832;19;20011;-61
2023/04/27 05:34:18;;;;;;;0.00;0.00;;;;;;;13.24;59.61;100661.47;7358466;19;20030;-61
2023/04/27 05:36:43;;;;;;;0.00;0.00;;;;;;;13.21;59.77;100658.94;7357504;19;20034;-61
2023/04/27 05:39:09;;;;;;;0.00;0.00;;;;;;;13.27;59.44;100659.63;7358654;19;20458;-61
2023/04/27 05:41:35;;;;;;;0.00;0.00;;;;;;;13.28;59.57;100654.34;7351514;19;20333;-61
2023/04/27 05:44:00;;;;;;;0.08;0.08;;;;;;;13.27;59.67;100639.50;7356377;19;20056;-61
2023/04/27 05:46:26;;;;;;;0.00;0.00;;;;;;;13.31;59.40;100645.50;7351522;19;20023;-61
2023/04/27 05:48:51;;;;;;;0.00;0.00;;;;;;;13.32;59.64;100642.81;7359179;19;20014;-61
2023/04/27 05:51:16;;;;;;;0.00;0.00;;;;;;;13.30;59.82;100630.69;7352093;19;20010;-61
2023/04/27 05:53:42;;;;;;;0.00;0.00;;;;;;;13.35;59.11;100647.13;7358556;19;20014;-61
2023/04/27 05:56:08;;;;;;;0.10;0.10;;;;;;;13.36;59.34;100644.44;7355941;19;20015;-61
2023/04/27 05:58:33;;;;;;;0.00;0.00;;;;;;;13.37;59.71;100646.13;7347098;19;20010;-61
2023/04/27 06:00:59;;;;;;;0.10;0.10;;;;;;;13.39;59.58;100649.59;7353602;19;20022;-62
2023/04/27 06:03:25;;;;;;;0.00;0.00;;;;;;;13.41;58.87;100652.13;7352622;19;20006;-61
2023/04/27 06:05:58;;;;;;;0.00;0.00;;;;;;;13.40;58.79;100640.78;7354919;19;20018;-61
2023/04/27 06:08:24;;;;;;;0.00;0.00;;;;;;;13.40;59.70;100655.69;7352379;19;20310;-61
2023/04/27 06:10:50;;;;;;;0.00;0.00;;;;;;;13.40;59.71;100645.19;7356694;19;20563;-61
2023/04/27 06:13:16;;;;;;;0.00;0.00;;;;;;;13.37;59.45;100634.78;7350712;19;20014;-61
2023/04/27 06:15:41;;;;;;;0.00;0.00;;;;;;;13.43;59.56;100634.56;7355191;19;20031;-61
2023/04/27 06:18:07;;;;;;;0.00;0.00;;;;;;;13.44;59.59;100638.94;7350201;19;20736;-61
2023/04/27 06:20:32;;;;;;;0.00;0.00;;;;;;;13.43;59.71;100630.22;7351399;19;20018;-61
2023/04/27 06:23:00;;;;;;;0.00;0.00;;;;;;;13.45;59.95;100636.25;7355792;19;20021;-61
2023/04/27 06:25:27;;;;;;;;;;;;;;;13.47;56.05;100628.31;7349214;19;20037;-61
2023/04/27 06:27:53;;;;;;;0.00;0.00;;;;;;;13.42;59.66;100622.38;7349980;19;19926;-61
2023/04/27 06:30:18;;;;;;;0.00;0.00;;;;;;;13.45;59.71;100622.28;7351252;19;20022;-61
2023/04/27 06:32:44;;;;;;;0.10;0.10;;;;;;;13.46;58.37;100629.22;7355036;19;20010;-61
2023/04/27 06:35:10;;;;;;;0.00;0.00;;;;;;;13.34;58.45;100596.44;7348602;19;20033;-61
2023/04/27 06:37:35;;;;;;;0.00;0.00;;;;;;;13.43;57.91;100618.81;7355550;19;20014;-61
2023/04/27 06:40:02;;;;;;;0.03;0.03;;;;;;;13.38;57.88;100603.28;7347893;19;20011;-61
2023/04/27 06:42:28;;;;;;;0.00;0.00;;;;;;;13.38;59.08;100610.28;7351288;19;20018;-61
2023/04/27 06:44:55;;;;;;;0.00;0.00;;;;;;;13.36;59.31;100609.47;7348707;19;20018;-61
2023/04/27 06:47:21;;;;;;;0.00;0.00;;;;;;;13.27;58.84;100599.31;7349486;19;20010;-61
2023/04/27 06:49:46;;;;;;;0.00;0.00;;;;;;;13.32;58.00;100608.72;7355583;19;20354;-61
2023/04/27 06:52:12;;;;;;;0.00;0.00;;;;;;;13.31;59.40;100608.78;7349404;19;20014;-61
2023/04/27 06:54:37;;;;;;;0.00;0.00;;;;;;;13.29;58.54;100615.88;7354049;19;20126;-61
2023/04/27 06:57:03;;;;;;;0.10;0.10;;;;;;;13.27;59.85;100612.41;7351447;19;20418;-61
2023/04/27 06:59:28;;;;;;;0.10;0.10;;;;;;;13.28;59.77;100608.88;7346664;19;20485;-62
2023/04/27 07:01:54;;;;;;;0.00;0.00;;;;;;;13.29;60.38;100594.88;7355871;19;20018;-61
2023/04/27 07:04:19;;;;;;;0.00;0.00;;;;;;;13.29;59.70;100608.00;7346931;19;20549;-61
2023/04/27 07:06:45;;;;;;;0.00;0.00;;;;;;;13.29;60.26;100605.38;7346922;19;20065;-61
2023/04/27 07:09:10;;;;;;;0.00;0.00;;;;;;;13.30;60.60;100612.31;7347949;19;20015;-61
2023/04/27 07:11:36;;;;;;;0.00;0.00;;;;;;;13.31;60.06;100608.78;7331842;19;20017;-62
2023/04/27 07:14:01;;;;;;;0.08;0.08;;;;;;;13.34;60.51;100611.31;7333133;19;20518;-62
2023/04/27 07:16:27;;;;;;;0.00;0.00;;;;;;;13.38;59.83;100610.28;7350941;19;20014;-61
2023/04/27 07:18:52;;;;;;;0.10;0.10;;;;;;;13.39;60.31;100612.00;7351293;19;20055;-61
2023/04/27 07:21:17;;;;;;;0.00;0.00;;;;;;;13.39;59.74;100606.75;7352724;19;21002;-61
2023/04/27 07:23:45;;;;;;;0.00;0.00;;;;;;;13.42;59.64;100622.38;7351887;19;20026;-61
2023/04/27 07:26:10;;;;;;;0.10;0.10;;;;;;;13.43;59.78;100608.34;7347546;19;20015;-61
2023/04/27 07:28:37;;;;;;;0.00;0.00;;;;;;;13.44;59.48;100600.44;7350429;19;20034;-61
2023/04/27 07:31:05;;;;;;;0.00;0.00;;;;;;;13.47;58.98;100604.69;7355018;19;20814;-61
2023/04/27 07:33:32;;;;;;;0.00;0.00;;;;;;;13.49;57.83;100608.13;7357424;19;20095;-62
2023/04/27 07:35:57;;;;;;;0.03;0.03;;;;;;;13.49;59.67;100608.13;7360053;19;20028;-61
2023/04/27 07:38:24;;;;;;;0.00;0.00;;;;;;;13.48;59.83;100607.28;7356635;19;21100;-61
2023/04/27 07:40:50;;;;;;;0.00;0.00;;;;;;;13.50;59.38;100609.84;7358170;19;20034;-61
2023/04/27 07:43:17;;;;;;;0.00;0.00;;;;;;;13.46;59.85;100598.59;7300398;19;20015;-61
2023/04/27 07:45:42;;;;;;;0.00;0.00;;;;;;;13.48;59.90;100606.41;7287133;19;20021;-61
2023/04/27 07:48:08;;;;;;;0.00;0.00;;;;;;;13.54;59.35;100616.69;7355363;19;20010;-61
2023/04/27 07:50:34;;;;;;;0.00;0.00;;;;;;;13.58;59.42;100612.19;7363229;19;20542;-61
2023/04/27 07:52:59;;;;;;;0.00;0.00;;;;;;;13.60;59.07;100616.47;7361656;19;20002;-61
2023/04/27 07:55:25;;;;;;;0.10;0.10;;;;;;;13.61;59.49;100605.06;7343966;19;20450;-61
2023/04/27 07:57:57;;;;;;;0.00;0.00;;;;;;;13.64;58.93;100599.72;7362196;19;20015;-61
2023/04/27 08:00:24;;;;;;;0.00;0.00;;;;;;;13.63;59.25;100600.59;7359888;19;20023;-61
2023/04/27 08:02:51;;;;;;;0.00;0.00;;;;;;;13.64;59.15;100597.09;7360707;19;20066;-61
2023/04/27 08:05:16;;;;;;;0.10;0.10;;;;;;;13.65;58.61;100598.78;7362001;19;20018;-61
2023/04/27 08:07:42;;;;;;;0.10;0.10;;;;;;;13.63;58.91;100589.25;7357982;19;20566;-61
2023/04/27 08:10:07;;;;;;;0.00;0.00;;;;;;;13.70;59.11;100596.00;7362487;19;20010;-61
2023/04/27 08:12:33;;;;;;;0.00;0.00;;;;;;;13.70;59.72;100586.34;7361675;19;20018;-61
2023/04/27 08:14:58;;;;;;;0.10;0.10;;;;;;;13.75;59.67;100589.66;7362079;19;20016;-61
2023/04/27 08:17:24;;;;;;;0.00;0.00;;;;;;;13.81;59.00;100582.47;7359247;19;20754;-61
2023/04/27 08:19:50;;;;;;;0.10;0.10;;;;;;;13.84;58.87;100592.84;7360413;19;20269;-61
2023/04/27 08:22:15;;;;;;;0.05;0.05;;;;;;;13.88;58.69;100584.78;7357768;19;20011;-61
2023/04/27 08:24:40;;;;;;;0.00;0.00;;;;;;;13.91;58.23;100583.84;7363433;19;20343;-61
2023/04/27 08:27:06;;;;;;;0.00;0.00;;;;;;;13.92;59.61;100580.28;7358791;19;20371;-61
2023/04/27 08:29:31;;;;;;;0.05;0.05;;;;;;;13.92;59.58;100575.03;7359834;19;20585;-61
2023/04/27 08:31:59;;;;;;;0.00;0.00;;;;;;;13.99;59.29;100577.38;7360465;19;20054;-62
2023/04/27 08:34:24;;;;;;;0.00;0.00;;;;;;;14.02;58.92;100572.00;7357854;19;20017;-61
2023/04/27 08:36:50;;;;;;;0.00;0.00;;;;;;;14.06;58.99;100562.22;7359405;19;20018;-61
2023/04/27 08:39:17;;;;;;;0.03;0.03;;;;;;;14.09;59.32;100567.38;7358056;19;20014;-61
2023/04/27 08:41:42;;;;;;;0.10;0.10;;;;;;;14.14;59.05;100565.41;7359595;19;20014;-61
2023/04/27 08:44:08;;;;;;;0.10;0.10;;;;;;;14.12;58.71;100540.97;7356076;19;20013;-62
2023/04/27 08:46:36;;;;;;;0.00;0.00;;;;;;;14.23;58.62;100556.31;7360015;19;20015;-62
2023/04/27 08:49:01;;;;;;;0.10;0.10;;;;;;;14.25;58.90;100546.59;7356247;19;20105;-61
2023/04/27 08:51:27;;;;;;;0.00;0.00;;;;;;;14.32;58.44;100541.94;7360492;19;20094;-62
2023/04/27 08:53:55;;;;;;;0.00;0.00;;;;;;;14.34;58.46;100542.72;7360476;19;20491;-62
2023/04/27 08:56:23;;;;;;;0.00;0.00;;;;;;;14.36;58.13;100543.53;7358009;19;20725;-61
2023/04/27 08:58:52;;;;;;;0.00;0.00;;;;;;;14.39;57.92;100543.41;7360760;19;20010;-61
2023/04/27 09:01:18;;;;;;;0.10;0.10;;;;;;;14.39;58.29;100538.16;7359024;19;20839;-61
2023/04/27 09:03:47;;;;;;;0.00;0.00;;;;;;;14.38;57.86;100541.69;7359251;19;20017;-62
2023/04/27 09:06:13;;;;;;;0.00;0.00;;;;;;;14.36;58.44;100533.88;7358707;19;20006;-61
2023/04/27 09:08:41;;;;;;;0.05;0.05;;;;;;;14.41;57.98;100542.44;7356427;19;20018;-61
2023/04/27 09:11:06;;;;;;;0.00;0.00;;;;;;;14.42;58.53;100535.41;7358198;19;20010;-61
2023/04/27 09:13:37;;;;;;;0.00;0.00;;;;;;;14.45;57.70;100528.25;7359659;19;21791;-62
2023/04/27 09:16:02;;;;;;;0.00;0.00;;;;;;;14.44;58.13;100523.03;7359087;19;20630;-62
2023/04/27 09:18:28;;;;;;;0.03;0.03;;;;;;;14.45;58.66;100522.16;7359123;19;20010;-61
2023/04/27 09:20:53;;;;;;;0.05;0.05;;;;;;;14.47;58.31;100522.94;7359422;19;20752;-62
2023/04/27 09:23:28;;;;;;;0.00;0.00;;;;;;;14.52;57.59;100526.25;7360649;19;20014;-61
2023/04/27 09:25:59;;;;;;;0.00;0.00;;;;;;;14.55;58.19;100526.13;7353114;19;20034;-62
2023/04/27 09:28:26;;;;;;;0.00;0.00;;;;;;;14.56;58.41;100525.22;7358391;19;20015;-61
2023/04/27 09:30:57;;;;;;;0.00;0.00;;;;;;;14.63;58.20;100515.28;7359057;19;20034;-62
2023/04/27 09:33:30;;;;;;;0.10;0.10;;;;;;;14.67;58.36;100515.09;7359411;19;20048;-61
2023/04/27 09:35:58;;;;;;;0.00;0.00;;;;;;;14.70;58.42;100522.88;7356035;19;20010;-62
2023/04/27 09:38:24;;;;;;;0.00;0.00;;;;;;;14.74;57.34;100519.16;7358637;19;20027;-62
2023/04/27 09:40:52;;;;;;;0.10;0.10;;;;;;;14.75;58.38;100512.13;7358052;19;20442;-62
2023/04/27 09:43:17;;;;;;;0.10;0.10;;;;;;;14.72;58.18;100505.25;7359500;19;20042;-61
2023/04/27 09:45:43;;;;;;;0.10;0.10;;;;;;;14.70;58.41;100504.47;7356116;19;20011;-61
2023/04/27 09:48:10;;;;;;;0.10;0.10;;;;;;;14.70;58.55;100501.84;7358280;19;20018;-61
2023/04/27 09:50:41;;;;;;;0.10;0.10;;;;;;;14.76;57.23;100506.81;7357905;19;20846;-60
2023/04/27 09:53:23;;;;;;;0.00;0.00;;;;;;;14.75;57.02;100504.25;7357595;19;20349;-61
2023/04/27 09:56:06;;;;;;;0.00;0.00;;;;;;;14.75;57.16;100505.13;7358553;19;20018;-61
2023/04/27 09:59:02;;;;;;;0.10;0.10;;;;;;;14.74;56.86;100506.00;7356528;19;20056;-61
2023/04/27 10:01:44;;;;;;;0.00;0.00;;;;;;;14.70;57.74;100501.84;7257016;19;2004968;-61
2023/04/27 10:04:19;;;;;;;0.00;0.00;;;;;;;14.64;58.37;100491.56;7357705;19;20014;-61
2023/04/27 10:06:59;;;;;;;0.00;0.00;;;;;;;14.59;58.51;100496.16;7359039;19;20031;-61
2023/04/27 10:09:26;;;;;;;0.00;0.00;;;;;;;14.58;59.28;100486.56;7354645;19;20097;-61
2023/04/27 10:11:54;;;;;;;0.10;0.10;;;;;;;14.57;59.37;100484.03;7356396;19;20030;-61
2023/04/27 10:14:21;;;;;;;0.00;0.00;;;;;;;14.60;59.35;100489.13;7357425;19;20010;-61
2023/04/27 10:16:52;;;;;;;0.00;0.00;;;;;;;14.58;58.79;100468.19;7356121;19;20557;-61
2023/04/27 10:19:19;;;;;;;0.10;0.10;;;;;;;14.63;59.11;100484.59;7356763;19;20010;-61
2023/04/27 10:22:02;;;;;;;0.00;0.00;;;;;;;14.69;57.96;100488.75;7359590;19;20340;-61
2023/04/27 10:24:38;;;;;;;0.10;0.10;;;;;;;14.69;58.25;100484.34;7358820;19;20807;-61
2023/04/27 10:27:06;;;;;;;0.10;0.10;;;;;;;14.68;58.50;100481.78;7355371;19;20081;-62
2023/04/27 10:29:36;;;;;;;0.00;0.00;;;;;;;14.60;57.88;100469.00;7356019;19;20038;-61
2023/04/27 10:32:06;;;;;;;0.00;0.00;;;;;;;14.69;58.78;100478.22;7356666;19;20118;-61
2023/04/27 10:34:35;;;;;;;0.10;0.10;;;;;;;14.66;59.22;100473.13;7358523;19;20036;-61
2023/04/27 10:37:06;;;;;;;0.00;0.00;;;;;;;14.61;58.63;100454.06;7356025;19;20017;-61
2023/04/27 10:39:35;;;;;;;0.00;0.00;;;;;;;14.64;58.85;100465.28;7355583;19;20021;-61
2023/04/27 10:42:01;;;;;;;0.00;0.00;;;;;;;14.69;58.63;100468.56;7355413;19;20014;-61
2023/04/27 10:44:30;;;;;;;0.10;0.10;;;;;;;14.72;58.26;100470.22;7356338;19;20557;-61
2023/04/27 10:46:58;;;;;;;0.10;0.10;;;;;;;14.73;57.92;100457.00;7358296;19;20018;-61
2023/04/27 10:49:29;;;;;;;0.05;0.05;;;;;;;14.73;57.64;100469.28;7353992;19;20018;-61
2023/04/27 10:51:57;;;;;;;0.00;0.00;;;;;;;14.71;57.67;100465.91;7356457;19;20018;-61
2023/04/27 10:54:29;;;;;;;0.00;0.00;;;;;;;14.54;58.18;100442.94;7354939;19;20022;-61
2023/04/27 10:57:07;;;;;;;0.10;0.10;;;;;;;14.64;57.72;100475.78;7356799;19;20043;-61
2023/04/27 10:59:35;;;;;;;0.10;0.10;;;;;;;14.61;58.80;100468.06;7356318;19;20013;-60
2023/04/27 11:02:00;;;;;;;0.00;0.00;;;;;;;14.59;58.66;100462.00;7355890;19;20042;-61
2023/04/27 11:04:39;;;;;;;0.00;0.00;;;;;;;14.59;58.67;100456.75;7355028;19;20063;-60
2023/04/27 11:07:07;;;;;;;0.00;0.00;;;;;;;14.48;59.70;100453.72;7364923;19;20387;-61
2023/04/27 11:09:37;;;;;;;0.08;0.08;;;;;;;14.58;58.51;100454.19;7360862;19;20022;-61
2023/04/27 11:12:06;;;;;;;0.00;0.00;;;;;;;14.60;59.46;100447.09;7362718;19;20014;-61
2023/04/27 11:14:34;;;;;;;0.00;0.00;;;;;;;14.56;59.69;100446.38;7358875;19;20026;-61
2023/04/27 11:16:59;;;;;;;0.08;0.08;;;;;;;14.57;59.70;100449.84;7363177;19;20490;-61
2023/04/27 11:19:25;;;;;;;0.10;0.10;;;;;;;14.57;59.53;100448.09;7361319;19;20022;-61
2023/04/27 11:21:50;;;;;;;0.00;0.00;;;;;;;14.58;59.22;100439.28;7348874;19;20035;-61